Surface observations / UK / EGMC

Quebec | Canada | USA | France | UK | Europe | Elsewhere

Display: Info & Location for EGMC | Help decoding METAR

EGMC SOUTHEND-ON-SEA -- UK
Raw surface observations for station EGMC
EGMC 271020Z 10012KT 9999 FEW030 18/11 Q1016=
EGMC 270950Z 11012KT 9999 SCT030 19/11 Q1016=
EGMC 270920Z 09012KT 9999 SCT025 18/12 Q1016=
EGMC 270850Z 10011KT 9999 FEW026 18/12 Q1015=
EGMC 270820Z 08012KT 9999 FEW030 17/12 Q1015=
EGMC 270750Z 06005KT 020V080 9999 FEW042 16/13 Q1015=
EGMC 270720Z VRB02KT 9999 FEW042 14/11 Q1015=
EGMC 270650Z VRB02KT 9999 FEW038 14/11 Q1015=
EGMC 270620Z 01004KT 340V040 9999 FEW038 12/10 Q1015=
EGMC 270550Z 35004KT 9999 FEW024 11/09 Q1015=
EGMC 270520Z VRB03KT 9999 FEW028 11/09 Q1014=
EGMC 270450Z 02006KT 9999 FEW031 SCT042 11/09 Q1014=
EGMC 270420Z 01004KT 9999 BKN041 11/09 Q1014=
EGMC 270350Z 36005KT 9999 SCT041 11/09 Q1014=
EGMC 270250Z 36005KT 9999 FEW045 11/09 Q1014=
EGMC 270150Z 35005KT 320V020 9999 FEW045 11/08 Q1013=
EGMC 270050Z 36005KT 340V050 9999 FEW045 11/09 Q1013=
EGMC 262350Z 36006KT 340V050 9999 FEW043 12/09 Q1013=
EGMC 262250Z 01007KT 340V050 9999 FEW042 12/10 Q1012=
EGMC 262150Z 01007KT 340V050 9999 OVC042 14/10 Q1012=
EGMC 262120Z 01007KT 340V050 9999 BKN046 14/10 Q1012=
EGMC 262050Z 02008KT 340V050 9999 BKN045 14/10 Q1011=
EGMC 262020Z 03007KT 350V070 9999 FEW026 BKN044 15/11 Q1011=
EGMC 261950Z 03008KT 350V060 9999 FEW026 SCT044 15/11 Q1011=
EGMC 261920Z 04012KT 360V060 9999 FEW026 SCT045 15/11 Q1010=
EGMC 261850Z 02008KT 010V070 9999 SCT026 BKN047 16/12 Q1009=
EGMC 261820Z 04009KT 010V070 9999 VCSH FEW019 SCT024 15/12 Q1009=
EGMC 261750Z 05009KT 020V080 9999 VCSH FEW010 SCT019 16/13 Q1009=
EGMC 261720Z 05007KT 020V080 9999 FEW010 BKN028 15/13 Q1008=
EGMC 261650Z 06007KT 9000 -RA FEW005 BKN030 15/14 Q1008=
EGMC 261620Z 06009KT 6000 -RADZ SCT006 BKN015 15/14 Q1008=
EGMC 261550Z 06010KT 7000 -RADZ FEW006 OVC015 15/14 Q1007=
EGMC 261520Z 05009KT 7000 -RADZ FEW006 OVC018 15/14 Q1007=
EGMC 261450Z 05011KT 9999 FEW006 OVC021 15/13 Q1007=
EGMC 261420Z 05009KT 9999 SCT009 BKN032 16/13 Q1007=
EGMC 261350Z 05007KT 360V080 9999 SCT006 BKN013 15/14 Q1006=
EGMC 261320Z 05012KT 7000 DZRA FEW004 BKN006 BKN016 16/13 Q1006=
EGMC 261250Z 05010KT 3000 DZRA BR FEW006 BKN018 16/13 Q1005=
EGMC 261150Z 07010KT 3200 DZRA BR FEW005 SCT012 OVC016 15/14 Q1005=
EGMC 261120Z 08012KT 6000 DZRA SCT015 OVC020 16/14 Q1005=
EGMC 261050Z 07012KT 9000 -DZRA SCT011 OVC020 16/14 Q1004=
EGMC 261020Z 08013KT 030V100 7000 SCT012 OVC028 16/14 Q1004=